Hague, Virginia
Current Conditions -  °F | °C
As of 12:53 AM on Friday 19 Dec 2014 (Local Time) from KNUI Reporting Station
Overcast Overcast  
Wind Chill: 31°   Ceiling: 10000
Heat Index: 36°   Visibility: 10mi
Dew Point: 21°   Wind: 6mph
Humidity: 55%   Direction: 300°WNW
Pressure: 30.1"   Gusts: NA
Location:  38.07°N, 76.65°W
Report Text: KNUI 190553Z AUTO 30005KT 10SM OVC100 02/M06 A3010 RMK AO2 SLP193 T00221061 10033 20022 51003
Loading
Personal Weather Stations






























Interactive Weather Map New forecast layout! Learn more

10-Day Weather Forecast

Advertisements
Track Severe Weather on mobile